Time;durP1;ratioP1;P1;durP2;ratioP2;P2;SDS_P1;SDS_P2;PMS_P1;PMS_P2;Temp;Humidity;BMP_temperature;BMP_pressure;BME280_temperature;BME280_humidity;BME280_pressure;Samples;Min_cycle;Max_cycle;Signal;HPM_P1;HPM_P2
2022/01/31 00:00:30;;;;;;;0.00;0.00;;;;;;;;;;5054836;28;20021;-61
2022/01/31 00:02:56;;;;;;;0.00;0.00;;;;;;;;;;5054859;28;20769;-62
2022/01/31 00:05:21;;;;;;;0.00;0.00;;;;;;;;;;5054807;28;20513;-61
2022/01/31 00:07:46;;;;;;;0.00;0.00;;;;;;;;;;5054609;28;20056;-61
2022/01/31 00:10:13;;;;;;;0.00;0.00;;;;;;;;;;5054871;28;20037;-61
2022/01/31 00:12:52;;;;;;;0.03;0.00;;;;;;;;;;5054437;28;20246;-61
2022/01/31 00:15:17;;;;;;;0.00;0.00;;;;;;;;;;5054727;28;20411;-61
2022/01/31 00:17:43;;;;;;;0.00;0.00;;;;;;;;;;5054483;28;20017;-61
2022/01/31 00:20:08;;;;;;;0.00;0.00;;;;;;;;;;5054732;28;20528;-61
2022/01/31 00:22:33;;;;;;;0.00;0.00;;;;;;;;;;5052923;28;20024;-61
2022/01/31 00:24:58;;;;;;;0.00;0.00;;;;;;;;;;5054880;28;20024;-61
2022/01/31 00:27:23;;;;;;;0.00;0.00;;;;;;;;;;5054366;28;20246;-61
2022/01/31 00:29:49;;;;;;;0.00;0.00;;;;;;;;;;5054328;28;20033;-61
2022/01/31 00:32:14;;;;;;;0.00;0.00;;;;;;;;;;5054449;28;20039;-61
2022/01/31 00:34:39;;;;;;;0.00;0.00;;;;;;;;;;5054083;28;20252;-61
2022/01/31 00:37:04;;;;;;;0.00;0.00;;;;;;;;;;5054423;28;20579;-61
2022/01/31 00:39:33;;;;;;;0.00;0.00;;;;;;;;;;5054055;28;20377;-61
2022/01/31 00:41:58;;;;;;;0.00;0.00;;;;;;;;;;5054289;28;20645;-61
2022/01/31 00:44:29;;;;;;;0.00;0.00;;;;;;;;;;5054039;28;20075;-61
2022/01/31 00:46:59;;;;;;;0.00;0.00;;;;;;;;;;5036267;28;20451;-62
2022/01/31 00:51:56;;;;;;;0.00;0.00;;;;;;;;;;5054319;28;20025;-61
2022/01/31 00:54:21;;;;;;;0.00;0.00;;;;;;;;;;5053972;28;20028;-61
2022/01/31 00:56:47;;;;;;;0.00;0.00;;;;;;;;;;5053853;28;20048;-61
2022/01/31 00:59:12;;;;;;;0.00;0.00;;;;;;;;;;5053981;28;20045;-61
2022/01/31 01:01:37;;;;;;;0.00;0.00;;;;;;;;;;5053722;28;20032;-61
2022/01/31 01:04:02;;;;;;;0.00;0.00;;;;;;;;;;5053888;28;20242;-61
2022/01/31 01:06:28;;;;;;;0.00;0.00;;;;;;;;;;5053397;28;20859;-61
2022/01/31 01:08:53;;;;;;;0.00;0.00;;;;;;;;;;5053632;28;20333;-61
2022/01/31 01:11:18;;;;;;;0.00;0.00;;;;;;;;;;5053852;28;20021;-61
2022/01/31 01:13:43;;;;;;;0.00;0.00;;;;;;;;;;5053748;28;20059;-61
2022/01/31 01:16:08;;;;;;;0.00;0.00;;;;;;;;;;5053678;28;20466;-61
2022/01/31 01:18:34;;;;;;;0.00;0.00;;;;;;;;;;5053231;28;20029;-61
2022/01/31 01:20:59;;;;;;;0.00;0.00;;;;;;;;;;5053593;28;20052;-61
2022/01/31 01:23:24;;;;;;;0.00;0.00;;;;;;;;;;5053302;28;20262;-61
2022/01/31 01:25:50;;;;;;;0.00;0.00;;;;;;;;;;5053461;28;20032;-61
2022/01/31 01:28:15;;;;;;;0.00;0.00;;;;;;;;;;5053364;28;20596;-61
2022/01/31 01:30:41;;;;;;;0.00;0.00;;;;;;;;;;5052966;28;20425;-61
2022/01/31 01:33:11;;;;;;;0.00;0.00;;;;;;;;;;5052987;28;20021;-62
2022/01/31 01:35:38;;;;;;;0.00;0.00;;;;;;;;;;5053372;28;20036;-61
2022/01/31 01:38:07;;;;;;;0.00;0.00;;;;;;;;;;5053251;28;20013;-61
2022/01/31 01:40:34;;;;;;;0.00;0.00;;;;;;;;;;5052932;28;20021;-61
2022/01/31 01:42:59;;;;;;;0.00;0.00;;;;;;;;;;5053101;28;20025;-61
2022/01/31 01:45:25;;;;;;;0.00;0.00;;;;;;;;;;5052881;28;20031;-61
2022/01/31 01:47:50;;;;;;;0.00;0.00;;;;;;;;;;5053201;28;20074;-61
2022/01/31 01:50:15;;;;;;;0.00;0.00;;;;;;;;;;5052863;28;20020;-61
2022/01/31 01:52:40;;;;;;;0.00;0.00;;;;;;;;;;5052700;28;20254;-61
2022/01/31 01:55:06;;;;;;;0.00;0.00;;;;;;;;;;5052936;28;20261;-61
2022/01/31 01:57:31;;;;;;;0.00;0.00;;;;;;;;;;5052605;28;20242;-61
2022/01/31 01:59:57;;;;;;;0.00;0.00;;;;;;;;;;5052798;28;20044;-61
2022/01/31 02:02:23;;;;;;;0.00;0.00;;;;;;;;;;5052637;28;20172;-61
2022/01/31 02:04:48;;;;;;;0.00;0.00;;;;;;;;;;5052274;28;20115;-61
2022/01/31 02:07:13;;;;;;;0.00;0.00;;;;;;;;;;5059687;22;20132;-61
2022/01/31 02:09:44;;;;;;;0.00;0.00;;;;;;;;;;5052667;28;20479;-61
2022/01/31 02:12:10;;;;;;;0.00;0.00;;;;;;;;;;5052904;28;20051;-62
2022/01/31 02:14:35;;;;;;;0.00;0.00;;;;;;;;;;5050856;28;20013;-62
2022/01/31 02:17:01;;;;;;;0.00;0.00;;;;;;;;;;5052647;28;20024;-61
2022/01/31 02:19:26;;;;;;;0.00;0.00;;;;;;;;;;5052349;28;20249;-61
2022/01/31 02:21:53;;;;;;;0.00;0.00;;;;;;;;;;5052457;28;20040;-61
2022/01/31 02:24:18;;;;;;;0.00;0.00;;;;;;;;;;5052387;28;20112;-61
2022/01/31 02:26:43;;;;;;;0.00;0.00;;;;;;;;;;5052139;28;20096;-61
2022/01/31 02:29:11;;;;;;;0.00;0.00;;;;;;;;;;5052518;28;20024;-61
2022/01/31 02:31:36;;;;;;;0.00;0.00;;;;;;;;;;5052027;28;20300;-61
2022/01/31 02:34:01;;;;;;;0.00;0.00;;;;;;;;;;5052351;28;20017;-61
2022/01/31 02:36:26;;;;;;;0.00;0.00;;;;;;;;;;5050820;28;20380;-61
2022/01/31 02:38:52;;;;;;;0.00;0.00;;;;;;;;;;5052114;28;20260;-61
2022/01/31 02:41:17;;;;;;;0.00;0.00;;;;;;;;;;5052199;28;20312;-61
2022/01/31 02:43:48;;;;;;;0.00;0.00;;;;;;;;;;5051861;28;20159;-61
2022/01/31 02:46:14;;;;;;;0.00;0.00;;;;;;;;;;5051551;28;20032;-61
2022/01/31 02:48:39;;;;;;;0.00;0.00;;;;;;;;;;5051890;28;20419;-61
2022/01/31 02:51:09;;;;;;;0.00;0.00;;;;;;;;;;5052201;28;20364;-61
2022/01/31 02:53:40;;;;;;;0.00;0.00;;;;;;;;;;5051948;28;20254;-61
2022/01/31 02:56:06;;;;;;;0.00;0.00;;;;;;;;;;5052164;28;20018;-61
2022/01/31 02:58:31;;;;;;;0.00;0.00;;;;;;;;;;5051842;28;20013;-61
2022/01/31 03:00:57;;;;;;;0.00;0.00;;;;;;;;;;5052005;28;20468;-61
2022/01/31 03:03:22;;;;;;;0.00;0.00;;;;;;;;;;5051864;28;20177;-61
2022/01/31 03:05:47;;;;;;;0.00;0.00;;;;;;;;;;5051799;28;20489;-61
2022/01/31 03:08:13;;;;;;;0.00;0.00;;;;;;;;;;5052048;28;20064;-61
2022/01/31 03:10:38;;;;;;;0.00;0.00;;;;;;;;;;5051622;28;20043;-61
2022/01/31 03:13:04;;;;;;;0.00;0.00;;;;;;;;;;5052026;28;20024;-61
2022/01/31 03:15:29;;;;;;;0.00;0.00;;;;;;;;;;5051658;28;20334;-61
2022/01/31 03:17:54;;;;;;;0.00;0.00;;;;;;;;;;5051869;28;20472;-61
2022/01/31 03:20:20;;;;;;;0.00;0.00;;;;;;;;;;5051802;28;20457;-61
2022/01/31 03:22:46;;;;;;;0.00;0.00;;;;;;;;;;5051669;28;20108;-61
2022/01/31 03:25:11;;;;;;;0.00;0.00;;;;;;;;;;5051871;28;20096;-61
2022/01/31 03:27:37;;;;;;;0.00;0.00;;;;;;;;;;5050287;28;20454;-61
2022/01/31 03:30:03;;;;;;;0.20;0.00;;;;;;;;;;5051699;28;20035;-61
2022/01/31 03:32:28;;;;;;;0.00;0.00;;;;;;;;;;5051540;28;20017;-61
2022/01/31 03:34:53;;;;;;;0.00;0.00;;;;;;;;;;5051626;28;20021;-61
2022/01/31 03:37:18;;;;;;;0.00;0.00;;;;;;;;;;5051756;28;20032;-61
2022/01/31 03:39:43;;;;;;;0.00;0.00;;;;;;;;;;5051759;28;20385;-61
2022/01/31 03:42:09;;;;;;;0.00;0.00;;;;;;;;;;5051757;28;20069;-61
2022/01/31 03:44:34;;;;;;;0.00;0.00;;;;;;;;;;5051255;28;20601;-61
2022/01/31 03:46:59;;;;;;;0.00;0.00;;;;;;;;;;5051691;28;20406;-61
2022/01/31 03:49:25;;;;;;;0.10;0.03;;;;;;;;;;5051275;28;20036;-61
2022/01/31 03:51:50;;;;;;;0.00;0.00;;;;;;;;;;5051576;28;20040;-61
2022/01/31 03:54:15;;;;;;;0.00;0.00;;;;;;;;;;5051602;28;20246;-61
2022/01/31 03:56:41;;;;;;;0.00;0.00;;;;;;;;;;5053133;28;20254;-61
2022/01/31 03:59:06;;;;;;;0.00;0.00;;;;;;;;;;5055232;28;20013;-61
2022/01/31 04:01:31;;;;;;;0.00;0.00;;;;;;;;;;5054864;28;20017;-62
2022/01/31 04:03:56;;;;;;;0.00;0.00;;;;;;;;;;5054971;28;20021;-61
2022/01/31 04:06:23;;;;;;;0.00;0.00;;;;;;;;;;5054699;28;20084;-61
2022/01/31 04:08:49;;;;;;;0.00;0.00;;;;;;;;;;5055019;28;20371;-61
2022/01/31 04:11:14;;;;;;;0.00;0.00;;;;;;;;;;5054785;28;20108;-61
2022/01/31 04:13:39;;;;;;;0.00;0.00;;;;;;;;;;5054677;28;20021;-61
2022/01/31 04:16:04;;;;;;;0.00;0.00;;;;;;;;;;5054846;28;20464;-61
2022/01/31 04:18:29;;;;;;;0.30;0.00;;;;;;;;;;5054508;28;20017;-61
2022/01/31 04:20:55;;;;;;;0.00;0.00;;;;;;;;;;5054639;28;20025;-61
2022/01/31 04:23:22;;;;;;;0.00;0.00;;;;;;;;;;5054599;28;20029;-61
2022/01/31 04:28:20;;;;;;;0.00;0.00;;;;;;;;;;5054884;28;20021;-61
2022/01/31 04:30:53;;;;;;;0.00;0.00;;;;;;;;;;5054340;28;20033;-61
2022/01/31 04:33:18;;;;;;;0.00;0.00;;;;;;;;;;5054453;28;20024;-61
2022/01/31 04:35:43;;;;;;;0.00;0.00;;;;;;;;;;5054551;28;20021;-61
2022/01/31 04:38:09;;;;;;;0.00;0.00;;;;;;;;;;5054534;28;20515;-61
2022/01/31 04:40:34;;;;;;;0.00;0.00;;;;;;;;;;5054021;28;20032;-61
2022/01/31 04:42:59;;;;;;;0.00;0.00;;;;;;;;;;5054319;28;20025;-61
2022/01/31 04:45:24;;;;;;;0.00;0.00;;;;;;;;;;5054128;28;20791;-61
2022/01/31 04:47:49;;;;;;;0.00;0.00;;;;;;;;;;5054210;28;20036;-61
2022/01/31 04:50:14;;;;;;;0.00;0.00;;;;;;;;;;5054034;28;20598;-61
2022/01/31 04:52:42;;;;;;;0.10;0.00;;;;;;;;;;5053927;28;20349;-61
2022/01/31 04:55:07;;;;;;;0.03;0.00;;;;;;;;;;5053948;28;20021;-61
2022/01/31 04:57:32;;;;;;;0.00;0.00;;;;;;;;;;5053846;28;20419;-61
2022/01/31 04:59:58;;;;;;;0.00;0.00;;;;;;;;;;5054005;28;20029;-61
2022/01/31 05:02:24;;;;;;;0.00;0.00;;;;;;;;;;5053847;28;20039;-61
2022/01/31 05:04:49;;;;;;;0.45;0.00;;;;;;;;;;5053870;28;20063;-61
2022/01/31 05:07:14;;;;;;;0.00;0.00;;;;;;;;;;5053147;28;20061;-61
2022/01/31 05:09:39;;;;;;;0.10;0.10;;;;;;;;;;5053349;28;20025;-61
2022/01/31 05:12:05;;;;;;;0.00;0.00;;;;;;;;;;5053819;28;20258;-61
2022/01/31 05:14:30;;;;;;;0.00;0.00;;;;;;;;;;5053725;28;20044;-61
2022/01/31 05:16:55;;;;;;;0.00;0.00;;;;;;;;;;5053613;28;20024;-61
2022/01/31 05:19:20;;;;;;;0.00;0.00;;;;;;;;;;5053550;28;20234;-61
2022/01/31 05:21:46;;;;;;;0.00;0.00;;;;;;;;;;5053518;28;20021;-61
2022/01/31 05:24:11;;;;;;;0.00;0.00;;;;;;;;;;5053827;28;20269;-61
2022/01/31 05:26:36;;;;;;;0.00;0.00;;;;;;;;;;5053156;28;20333;-61
2022/01/31 05:29:01;;;;;;;0.00;0.00;;;;;;;;;;5053556;28;20250;-61
2022/01/31 05:31:27;;;;;;;0.00;0.00;;;;;;;;;;5053147;28;20769;-61
2022/01/31 05:33:52;;;;;;;0.00;0.00;;;;;;;;;;5053327;28;20013;-61
2022/01/31 05:36:17;;;;;;;0.00;0.00;;;;;;;;;;5053274;28;20598;-61
2022/01/31 05:38:43;;;;;;;0.00;0.00;;;;;;;;;;5053594;28;20331;-61
2022/01/31 05:41:16;;;;;;;0.00;0.00;;;;;;;;;;5053249;28;20017;-61
2022/01/31 05:43:41;;;;;;;0.00;0.00;;;;;;;;;;5052944;28;20017;-61
2022/01/31 05:46:07;;;;;;;0.00;0.00;;;;;;;;;;5053500;28;20460;-61
2022/01/31 05:48:32;;;;;;;0.00;0.00;;;;;;;;;;5052867;28;20064;-61
2022/01/31 05:50:57;;;;;;;0.00;0.00;;;;;;;;;;5052914;28;20028;-61
2022/01/31 05:53:22;;;;;;;0.00;0.00;;;;;;;;;;5052827;28;20250;-61
2022/01/31 05:55:48;;;;;;;0.00;0.00;;;;;;;;;;5052861;28;20456;-61
2022/01/31 05:58:14;;;;;;;0.00;0.00;;;;;;;;;;5052865;28;20043;-61
2022/01/31 06:00:39;;;;;;;0.00;0.00;;;;;;;;;;5052563;28;20071;-61
2022/01/31 06:03:04;;;;;;;0.00;0.00;;;;;;;;;;5052864;28;20020;-61
2022/01/31 06:05:29;;;;;;;0.00;0.00;;;;;;;;;;5052332;28;20113;-61
2022/01/31 06:07:54;;;;;;;0.00;0.00;;;;;;;;;;5052537;28;20135;-61
2022/01/31 06:10:22;;;;;;;0.00;0.00;;;;;;;;;;5052565;28;20491;-61
2022/01/31 06:12:48;;;;;;;0.00;0.00;;;;;;;;;;5052578;28;20021;-61
2022/01/31 06:15:13;;;;;;;0.00;0.00;;;;;;;;;;5052560;28;20072;-61
2022/01/31 06:17:39;;;;;;;0.00;0.00;;;;;;;;;;5052470;28;20108;-61
2022/01/31 06:20:05;;;;;;;0.00;0.00;;;;;;;;;;5052529;28;20296;-61
2022/01/31 06:22:30;;;;;;;0.10;0.00;;;;;;;;;;5052353;28;20025;-62
2022/01/31 06:24:55;;;;;;;0.20;0.00;;;;;;;;;;5052388;28;20330;-61
2022/01/31 06:27:20;;;;;;;0.00;0.00;;;;;;;;;;5052317;28;20242;-61
2022/01/31 06:29:47;;;;;;;0.00;0.00;;;;;;;;;;5052583;28;20029;-61
2022/01/31 06:32:12;;;;;;;0.00;0.00;;;;;;;;;;5052421;28;20250;-61
2022/01/31 06:34:37;;;;;;;0.00;0.00;;;;;;;;;;5052047;28;20047;-61
2022/01/31 06:37:04;;;;;;;0.00;0.00;;;;;;;;;;5052372;28;20056;-61
2022/01/31 06:39:29;;;;;;;0.00;0.00;;;;;;;;;;5052068;28;20025;-61
2022/01/31 06:41:55;;;;;;;0.00;0.00;;;;;;;;;;5052225;28;20032;-61
2022/01/31 06:44:20;;;;;;;0.00;0.00;;;;;;;;;;5052137;28;20031;-61
2022/01/31 06:46:45;;;;;;;0.00;0.00;;;;;;;;;;5052317;28;20021;-61
2022/01/31 06:49:10;;;;;;;0.00;0.00;;;;;;;;;;5052245;28;20652;-61
2022/01/31 06:51:36;;;;;;;0.00;0.00;;;;;;;;;;5051856;28;20086;-61
2022/01/31 06:54:01;;;;;;;0.00;0.00;;;;;;;;;;5052136;28;20028;-61
2022/01/31 06:56:30;;;;;;;0.00;0.00;;;;;;;;;;5051946;28;20250;-61
2022/01/31 06:58:56;;;;;;;0.00;0.00;;;;;;;;;;5052014;28;20021;-61
2022/01/31 07:01:24;;;;;;;0.00;0.00;;;;;;;;;;5051940;28;20018;-61
2022/01/31 07:03:49;;;;;;;0.00;0.00;;;;;;;;;;5051999;28;20059;-61
2022/01/31 07:06:15;;;;;;;0.00;0.00;;;;;;;;;;5051922;28;20041;-61
2022/01/31 07:08:40;;;;;;;0.00;0.00;;;;;;;;;;5050742;28;20262;-61
2022/01/31 07:11:05;;;;;;;0.00;0.00;;;;;;;;;;5051997;28;20025;-61
2022/01/31 07:15:55;;;;;;;0.00;0.00;;;;;;;;;;5052254;28;20020;-61
2022/01/31 07:18:20;;;;;;;0.00;0.00;;;;;;;;;;5051819;28;20037;-61
2022/01/31 07:20:50;;;;;;;0.00;0.00;;;;;;;;;;5051752;28;20296;-61
2022/01/31 07:23:23;;;;;;;0.00;0.00;;;;;;;;;;5051980;28;20472;-61
2022/01/31 07:25:48;;;;;;;0.00;0.00;;;;;;;;;;5051759;28;20067;-61
2022/01/31 07:28:16;;;;;;;0.00;0.00;;;;;;;;;;5051849;28;20055;-61
2022/01/31 07:30:44;;;;;;;0.00;0.00;;;;;;;;;;5051946;28;20277;-61
2022/01/31 07:33:10;;;;;;;0.68;0.10;;;;;;;;;;5055732;28;20028;-61
2022/01/31 07:35:36;;;;;;;0.00;0.00;;;;;;;;;;5055685;28;20059;-61
2022/01/31 07:38:02;;;;;;;0.00;0.00;;;;;;;;;;5055554;28;20048;-61
2022/01/31 07:40:27;;;;;;;0.00;0.00;;;;;;;;;;5055347;28;20020;-61
2022/01/31 07:42:52;;;;;;;0.00;0.00;;;;;;;;;;5055365;28;20028;-61
2022/01/31 07:45:17;;;;;;;0.00;0.00;;;;;;;;;;5055713;28;20250;-61
2022/01/31 07:47:43;;;;;;;0.00;0.00;;;;;;;;;;5055517;28;20536;-61
2022/01/31 07:50:08;;;;;;;0.00;0.00;;;;;;;;;;5055345;28;20283;-61
2022/01/31 07:52:33;;;;;;;0.00;0.00;;;;;;;;;;5055036;28;20328;-61
2022/01/31 07:54:58;;;;;;;0.00;0.00;;;;;;;;;;5055276;28;20048;-61
2022/01/31 07:57:25;;;;;;;0.10;0.00;;;;;;;;;;5055034;28;20470;-61
2022/01/31 07:59:50;;;;;;;0.00;0.00;;;;;;;;;;5055098;28;20025;-61
2022/01/31 08:02:16;;;;;;;0.00;0.00;;;;;;;;;;5055081;28;20430;-61
2022/01/31 08:04:41;;;;;;;0.00;0.00;;;;;;;;;;5054771;28;20066;-61
2022/01/31 08:07:06;;;;;;;0.00;0.00;;;;;;;;;;5054910;28;20293;-61
2022/01/31 08:09:31;;;;;;;0.10;0.00;;;;;;;;;;5054734;28;20784;-61
2022/01/31 08:11:56;;;;;;;0.00;0.00;;;;;;;;;;5054912;28;20025;-61
2022/01/31 08:14:22;;;;;;;0.00;0.00;;;;;;;;;;5054735;28;20277;-61
2022/01/31 08:16:47;;;;;;;0.00;0.00;;;;;;;;;;5054729;28;20088;-61
2022/01/31 08:19:12;;;;;;;0.00;0.00;;;;;;;;;;5054816;28;20044;-61
2022/01/31 08:21:37;;;;;;;0.00;0.00;;;;;;;;;;5055164;28;20294;-61
2022/01/31 08:24:03;;;;;;;0.00;0.00;;;;;;;;;;5054729;28;20491;-61
2022/01/31 08:26:28;;;;;;;0.00;0.00;;;;;;;;;;5054445;28;20021;-61
2022/01/31 08:28:57;;;;;;;0.00;0.00;;;;;;;;;;5055186;28;20518;-61
2022/01/31 08:36:35;;;;;;;0.00;0.00;;;;;;;;;;5031700;28;20392;-61
2022/01/31 08:39:10;;;;;;;0.00;0.00;;;;;;;;;;5032117;28;20030;-61
2022/01/31 08:41:36;;;;;;;0.00;0.00;;;;;;;;;;5031746;28;20037;-61
2022/01/31 08:44:02;;;;;;;0.00;0.00;;;;;;;;;;5030899;28;20025;-61
2022/01/31 08:46:28;;;;;;;0.00;0.00;;;;;;;;;;5031774;28;20028;-61
2022/01/31 08:48:55;;;;;;;0.00;0.00;;;;;;;;;;5031770;28;20056;-61
2022/01/31 08:51:20;;;;;;;0.00;0.00;;;;;;;;;;5031675;28;20544;-61
2022/01/31 08:53:48;;;;;;;0.00;0.00;;;;;;;;;;5031722;28;20167;-62
2022/01/31 08:56:13;;;;;;;0.00;0.00;;;;;;;;;;5031828;28;20611;-61
2022/01/31 08:58:44;;;;;;;0.00;0.00;;;;;;;;;;5031414;28;20499;-61
2022/01/31 09:01:11;;;;;;;0.00;0.00;;;;;;;;;;5031729;28;20104;-61
2022/01/31 09:06:05;;;;;;;0.00;0.00;;;;;;;;;;5031449;28;20045;-61
2022/01/31 09:08:30;;;;;;;0.00;0.00;;;;;;;;;;5031297;28;20055;-61
2022/01/31 09:10:56;;;;;;;0.00;0.00;;;;;;;;;;5031316;28;20477;-61
2022/01/31 09:13:21;;;;;;;0.00;0.00;;;;;;;;;;5039800;28;20250;-62
2022/01/31 09:15:47;;;;;;;0.00;0.00;;;;;;;;;;5053608;28;20520;-61
2022/01/31 09:18:12;;;;;;;0.00;0.00;;;;;;;;;;5053721;28;20028;-61
2022/01/31 09:20:37;;;;;;;0.00;0.00;;;;;;;;;;5053378;28;20276;-61
2022/01/31 09:23:03;;;;;;;0.00;0.00;;;;;;;;;;5053655;28;20025;-61
2022/01/31 09:25:30;;;;;;;0.00;0.00;;;;;;;;;;5053366;28;20376;-61
2022/01/31 09:27:56;;;;;;;0.00;0.00;;;;;;;;;;5053459;28;20404;-61
2022/01/31 09:30:22;;;;;;;0.00;0.00;;;;;;;;;;5053251;28;20047;-62
2022/01/31 09:32:47;;;;;;;0.00;0.00;;;;;;;;;;5052709;28;20096;-62
2022/01/31 09:35:12;;;;;;;0.00;0.00;;;;;;;;;;5053269;28;20144;-61
2022/01/31 09:37:38;;;;;;;0.00;0.00;;;;;;;;;;5051893;28;20025;-62
2022/01/31 09:40:04;;;;;;;0.00;0.00;;;;;;;;;;5050294;28;20081;-63
2022/01/31 09:42:52;;;;;;;0.00;0.00;;;;;;;;;;5051866;28;20025;-63
2022/01/31 09:45:34;;;;;;;0.00;0.00;;;;;;;;;;5048731;28;20032;-63
2022/01/31 09:50:27;;;;;;;0.00;0.00;;;;;;;;;;5050666;28;20029;-62
2022/01/31 09:52:52;;;;;;;0.00;0.00;;;;;;;;;;5052879;28;20044;-63
2022/01/31 09:55:17;;;;;;;0.00;0.00;;;;;;;;;;5052383;28;20024;-63
2022/01/31 09:57:42;;;;;;;0.00;0.00;;;;;;;;;;5052157;28;20297;-60
2022/01/31 10:00:08;;;;;;;0.00;0.00;;;;;;;;;;5052999;28;20035;-61
2022/01/31 10:02:33;;;;;;;0.00;0.00;;;;;;;;;;5052167;28;20257;-62
2022/01/31 10:04:58;;;;;;;0.00;0.00;;;;;;;;;;5050790;28;20021;-62
2022/01/31 10:07:23;;;;;;;0.00;0.00;;;;;;;;;;5050307;28;20484;-62
2022/01/31 10:09:50;;;;;;;0.00;0.00;;;;;;;;;;5051716;28;20032;-63
2022/01/31 10:17:36;;;;;;;0.00;0.00;;;;;;;;;;5047937;28;20078;-62
2022/01/31 10:20:06;;;;;;;0.00;0.00;;;;;;;;;;5052581;28;20025;-62
2022/01/31 10:22:33;;;;;;;0.00;0.00;;;;;;;;;;5051512;28;20090;-62
2022/01/31 10:24:59;;;;;;;0.00;0.00;;;;;;;;;;5052477;28;20021;-62
2022/01/31 10:27:28;;;;;;;0.75;0.00;;;;;;;;;;5052220;28;20411;-62
2022/01/31 10:29:54;;;;;;;0.00;0.00;;;;;;;;;;5049170;28;20482;-61
2022/01/31 10:32:28;;;;;;;0.00;0.00;;;;;;;;;;5052332;28;20135;-61
2022/01/31 10:34:55;;;;;;;0.10;0.05;;;;;;;;;;5050038;28;20391;-61
2022/01/31 10:37:22;;;;;;;0.10;0.00;;;;;;;;;;5049866;28;20365;-61
2022/01/31 10:45:26;;;;;;;0.00;0.00;;;;;;;;;;5051832;28;20100;-61
2022/01/31 10:51:09;;;;;;;0.00;0.00;;;;;;;;;;5051919;28;20028;-62
2022/01/31 10:53:47;;;;;;;1.52;0.05;;;;;;;;;;5051242;28;20028;-61
2022/01/31 10:56:12;;;;;;;0.00;0.00;;;;;;;;;;5051314;28;20016;-61
2022/01/31 10:58:52;;;;;;;0.00;0.00;;;;;;;;;;5051817;28;20399;-62
2022/01/31 11:01:18;;;;;;;0.00;0.00;;;;;;;;;;5052055;28;20528;-61
2022/01/31 11:03:45;;;;;;;0.10;0.00;;;;;;;;;;5049611;28;20099;-61
2022/01/31 11:06:10;;;;;;;0.00;0.00;;;;;;;;;;5051954;28;20124;-62
2022/01/31 11:08:36;;;;;;;0.10;0.00;;;;;;;;;;5054506;28;20387;-61
2022/01/31 11:11:02;;;;;;;0.00;0.00;;;;;;;;;;5056088;28;20021;-61
2022/01/31 11:13:28;;;;;;;0.00;0.00;;;;;;;;;;5055814;28;20021;-61
2022/01/31 11:15:56;;;;;;;0.00;0.00;;;;;;;;;;5054966;28;20052;-61
2022/01/31 11:18:22;;;;;;;0.00;0.00;;;;;;;;;;5053369;28;20036;-61
2022/01/31 11:20:49;;;;;;;0.13;0.00;;;;;;;;;;5055814;28;20021;-61
2022/01/31 11:23:16;;;;;;;0.00;0.00;;;;;;;;;;5055254;28;20021;-61
2022/01/31 11:25:43;;;;;;;0.00;0.00;;;;;;;;;;5054595;28;20027;-61
2022/01/31 11:28:09;;;;;;;0.00;0.00;;;;;;;;;;5053425;28;20017;-61
2022/01/31 11:30:35;;;;;;;0.10;0.00;;;;;;;;;;5054192;28;20356;-61
2022/01/31 11:33:02;;;;;;;0.00;0.00;;;;;;;;;;5054479;28;20017;-61
2022/01/31 11:35:27;;;;;;;0.00;0.00;;;;;;;;;;5042035;28;20072;-61
2022/01/31 11:37:53;;;;;;;0.03;0.03;;;;;;;;;;5035612;28;20018;-61
2022/01/31 11:40:18;;;;;;;0.00;0.00;;;;;;;;;;5035598;28;20026;-61
2022/01/31 11:42:45;;;;;;;0.30;0.20;;;;;;;;;;5035345;28;20021;-61
2022/01/31 11:45:18;;;;;;;0.00;0.00;;;;;;;;;;5035508;28;20029;-61
2022/01/31 11:47:45;;;;;;;0.20;0.00;;;;;;;;;;5035309;28;20028;-61
2022/01/31 11:50:14;;;;;;;0.00;0.00;;;;;;;;;;5035397;28;20025;-61
2022/01/31 11:52:47;;;;;;;0.00;0.00;;;;;;;;;;5035466;28;20021;-61
2022/01/31 11:55:13;;;;;;;0.00;0.00;;;;;;;;;;5035387;28;20018;-61
2022/01/31 11:57:39;;;;;;;0.00;0.00;;;;;;;;;;5033927;28;20348;-61
2022/01/31 12:00:07;;;;;;;0.20;0.08;;;;;;;;;;5035343;28;20461;-61
2022/01/31 12:02:39;;;;;;;0.00;0.00;;;;;;;;;;5033967;28;20026;-61
2022/01/31 12:05:06;;;;;;;0.00;0.00;;;;;;;;;;5035193;28;20060;-62
2022/01/31 12:07:40;;;;;;;0.00;0.00;;;;;;;;;;5034698;28;20053;-61
2022/01/31 12:10:11;;;;;;;0.22;0.00;;;;;;;;;;5050005;28;20028;-61
2022/01/31 12:12:46;;;;;;;0.00;0.00;;;;;;;;;;5054086;28;20047;-62
2022/01/31 12:15:47;;;;;;;0.00;0.00;;;;;;;;;;5053472;28;20096;-61
2022/01/31 12:23:57;;;;;;;0.00;0.00;;;;;;;;;;4974797;28;20102;-61
2022/01/31 12:26:26;;;;;;;0.00;0.00;;;;;;;;;;4973356;28;20066;-61
2022/01/31 12:29:21;;;;;;;0.00;0.00;;;;;;;;;;4973395;28;20050;-61
2022/01/31 12:31:48;;;;;;;1.65;0.00;;;;;;;;;;4971082;28;20047;-61
2022/01/31 12:34:28;;;;;;;0.00;0.00;;;;;;;;;;4992834;28;20030;-62
2022/01/31 12:36:57;;;;;;;0.00;0.00;;;;;;;;;;4977852;28;20039;-61
2022/01/31 12:39:29;;;;;;;0.00;0.00;;;;;;;;;;4966686;28;20035;-61
2022/01/31 12:42:03;;;;;;;0.00;0.00;;;;;;;;;;4971483;28;20192;-61
2022/01/31 12:44:31;;;;;;;0.00;0.00;;;;;;;;;;4971379;28;20084;-60
2022/01/31 12:47:11;;;;;;;1.20;0.08;;;;;;;;;;4970835;28;20447;-60
2022/01/31 12:49:36;;;;;;;0.00;0.00;;;;;;;;;;4971499;28;20162;-61
2022/01/31 12:52:03;;;;;;;0.75;0.08;;;;;;;;;;4955198;28;20753;-62
2022/01/31 12:54:47;;;;;;;0.00;0.00;;;;;;;21.96;39.70;100386.31;5062377;28;20397;-61
2022/01/31 12:57:13;;;;;;;0.00;0.00;;;;;;;21.94;40.34;100394.75;5048278;28;20044;-59
2022/01/31 12:59:40;;;;;;;0.00;0.00;;;;;;;21.94;40.50;100383.78;5048774;28;20088;-60
2022/01/31 13:02:08;;;;;;;0.00;0.00;;;;;;;21.95;40.39;100396.41;5052881;28;20028;-60
2022/01/31 13:04:34;;;;;;;0.10;0.00;;;;;;;21.97;40.03;100409.91;5053945;28;20115;-62
2022/01/31 13:07:09;;;;;;;0.00;0.00;;;;;;;21.96;40.32;100408.22;5044849;28;20392;-61
2022/01/31 13:09:37;;;;;;;0.00;0.00;;;;;;;21.96;39.94;100408.22;5051922;28;20033;-61
2022/01/31 13:12:14;;;;;;;0.00;0.00;;;;;;;21.95;40.26;100417.47;5041579;28;20029;-60
2022/01/31 13:14:44;;;;;;;0.00;0.00;;;;;;;21.93;40.60;100413.03;5030883;28;20029;-62
2022/01/31 13:17:25;;;;;;;0.03;0.00;;;;;;;21.95;40.34;100412.00;5052835;28;20032;-60
2022/01/31 13:19:59;;;;;;;1.65;0.00;;;;;;;21.96;40.09;100411.78;5044458;28;20508;-59
2022/01/31 13:22:34;;;;;;;0.20;0.00;;;;;;;21.96;40.22;100408.22;5049081;28;20111;-59
2022/01/31 13:25:05;;;;;;;0.00;0.00;;;;;;;21.96;40.57;100405.47;5042832;28;20033;-60
2022/01/31 13:27:46;;;;;;;0.00;0.00;;;;;;;21.96;40.22;100408.22;5040967;28;20044;-60
2022/01/31 13:30:17;;;;;;;0.10;0.00;;;;;;;21.96;40.58;100419.16;5045417;28;20028;-59
2022/01/31 13:32:43;;;;;;;0.00;0.00;;;;;;;21.92;40.62;100408.63;5044416;28;20464;-61
2022/01/31 13:35:14;;;;;;;0.10;0.00;;;;;;;21.93;40.76;100424.00;5048312;28;20039;-61
2022/01/31 13:37:53;;;;;;;0.00;0.00;;;;;;;21.93;40.12;100415.78;5034083;28;20029;-61
2022/01/31 13:40:41;;;;;;;0.00;0.00;;;;;;;21.93;40.34;100432.19;5046877;28;20025;-60
2022/01/31 13:43:23;;;;;;;0.00;0.00;;;;;;;21.95;40.58;100439.38;5057962;28;20021;-61
2022/01/31 13:45:56;;;;;;;0.00;0.00;;;;;;;21.99;40.15;100432.44;5047108;28;20021;-64
2022/01/31 13:51:13;;;;;;;0.65;0.00;;;;;;;23.27;38.42;100426.72;5042127;28;20041;-62
2022/01/31 13:53:40;;;;;;;0.55;0.00;;;;;;;23.42;38.36;100431.97;5047657;28;20040;-61
2022/01/31 13:56:10;;;;;;;0.88;0.20;;;;;;;23.56;37.67;100427.28;5043851;28;20067;-60
2022/01/31 13:58:38;;;;;;;2.17;0.10;;;;;;;23.63;37.55;100428.97;5047271;28;20021;-60
2022/01/31 14:01:06;;;;;;;0.57;0.00;;;;;;;23.46;38.84;100427.72;5033597;28;20049;-61
2022/01/31 14:03:41;;;;;;;0.00;0.00;;;;;;;23.46;38.66;100435.97;5047529;28;20037;-59
2022/01/31 14:06:12;;;;;;;0.57;0.00;;;;;;;22.92;37.81;100433.50;5017406;28;20026;-60
2022/01/31 14:08:41;;;;;;;0.28;0.10;;;;;;;22.54;37.80;100422.28;5024283;28;20026;-61
2022/01/31 14:11:06;;;;;;;0.35;0.00;;;;;;;22.52;37.37;100431.56;5029046;28;20083;-62
2022/01/31 14:13:33;;;;;;;1.43;0.10;;;;;;;22.44;37.13;100430.91;5024047;28;20101;-58
2022/01/31 14:15:58;;;;;;;0.08;0.00;;;;;;;21.76;39.31;100430.03;5041953;28;20274;-61
2022/01/31 14:18:25;;;;;;;0.10;0.00;;;;;;;21.18;40.67;100443.13;5028667;28;20024;-61
2022/01/31 14:20:53;;;;;;;0.20;0.00;;;;;;;20.94;40.74;100442.53;5027789;28;20469;-61
2022/01/31 14:23:19;;;;;;;1.15;0.10;;;;;;;20.76;41.72;100444.03;5029273;28;20026;-62
2022/01/31 14:25:47;;;;;;;1.25;0.10;;;;;;;20.63;42.96;100456.53;5031457;28;20031;-63
2022/01/31 14:28:14;;;;;;;1.35;0.10;;;;;;;20.52;43.22;100454.34;5032002;28;20021;-64
2022/01/31 14:30:49;;;;;;;0.85;0.10;;;;;;;20.46;43.41;100449.63;5034052;28;20032;-60
2022/01/31 14:33:18;;;;;;;0.70;0.10;;;;;;;20.27;45.14;100456.56;5027464;28;20030;-61
2022/01/31 14:35:43;;;;;;;0.20;0.00;;;;;;;20.18;43.49;100456.88;5027977;28;20467;-59
2022/01/31 14:38:13;;;;;;;0.13;0.10;;;;;;;20.17;44.51;100464.22;5029105;28;20413;-60
2022/01/31 14:47:16;;;;;;;0.08;0.00;;;;;;;20.11;44.78;100474.00;5032302;28;20029;-59
2022/01/31 14:49:10;;;;;;;0.38;0.00;;;;;;;20.07;45.65;100471.84;5028285;28;20061;-61
2022/01/31 14:51:38;;;;;;;0.30;0.10;;;;;;;20.03;44.71;100487.78;5029081;28;20517;-62
2022/01/31 14:54:07;;;;;;;0.30;0.10;;;;;;;20.04;44.61;100481.28;5037537;28;20099;-61
2022/01/31 14:56:33;;;;;;;0.30;0.10;;;;;;;19.99;45.03;100483.75;5028161;28;20438;-59